sensor_id;sensor_type;location;lat;lon;timestamp;temperature;humidity
59311;DHT22;45078;51.654;21.250;2023-02-21T00:02:32;7.80;99.90
59311;DHT22;45078;51.654;21.250;2023-02-21T00:05:16;7.90;99.90
59311;DHT22;45078;51.654;21.250;2023-02-21T00:08:01;7.80;99.90
59311;DHT22;45078;51.654;21.250;2023-02-21T00:13:15;7.90;99.90
59311;DHT22;45078;51.654;21.250;2023-02-21T00:16:00;7.90;99.90
59311;DHT22;45078;51.654;21.250;2023-02-21T00:18:44;7.90;99.90
59311;DHT22;45078;51.654;21.250;2023-02-21T00:21:29;7.90;99.90
59311;DHT22;45078;51.654;21.250;2023-02-21T00:24:17;7.80;99.90
59311;DHT22;45078;51.654;21.250;2023-02-21T00:27:03;7.80;99.90
59311;DHT22;45078;51.654;21.250;2023-02-21T00:29:48;7.90;99.90
59311;DHT22;45078;51.654;21.250;2023-02-21T00:32:33;7.80;99.90
59311;DHT22;45078;51.654;21.250;2023-02-21T00:35:17;7.80;99.90
59311;DHT22;45078;51.654;21.250;2023-02-21T00:38:01;7.70;99.90
59311;DHT22;45078;51.654;21.250;2023-02-21T00:40:46;7.70;99.90
59311;DHT22;45078;51.654;21.250;2023-02-21T00:43:32;7.60;99.90
59311;DHT22;45078;51.654;21.250;2023-02-21T00:46:17;7.60;99.90
59311;DHT22;45078;51.654;21.250;2023-02-21T00:49:02;7.60;99.90
59311;DHT22;45078;51.654;21.250;2023-02-21T00:51:46;7.60;99.90
59311;DHT22;45078;51.654;21.250;2023-02-21T00:54:31;7.60;99.90
59311;DHT22;45078;51.654;21.250;2023-02-21T00:57:16;7.60;99.90
59311;DHT22;45078;51.654;21.250;2023-02-21T01:00:00;7.60;99.90
59311;DHT22;45078;51.654;21.250;2023-02-21T01:02:44;7.70;99.90
59311;DHT22;45078;51.654;21.250;2023-02-21T01:05:28;7.70;99.90
59311;DHT22;45078;51.654;21.250;2023-02-21T01:08:12;7.80;99.90
59311;DHT22;45078;51.654;21.250;2023-02-21T01:10:56;7.80;99.90
59311;DHT22;45078;51.654;21.250;2023-02-21T01:13:41;7.80;99.90
59311;DHT22;45078;51.654;21.250;2023-02-21T01:16:28;7.80;99.90
59311;DHT22;45078;51.654;21.250;2023-02-21T01:19:12;7.90;99.90
59311;DHT22;45078;51.654;21.250;2023-02-21T01:21:57;7.80;99.90
59311;DHT22;45078;51.654;21.250;2023-02-21T01:24:41;7.80;99.90
59311;DHT22;45078;51.654;21.250;2023-02-21T01:27:26;7.80;99.90
59311;DHT22;45078;51.654;21.250;2023-02-21T01:30:10;7.90;99.90
59311;DHT22;45078;51.654;21.250;2023-02-21T01:32:54;7.90;99.90
59311;DHT22;45078;51.654;21.250;2023-02-21T01:35:39;7.90;99.90
59311;DHT22;45078;51.654;21.250;2023-02-21T01:38:23;7.90;99.90
59311;DHT22;45078;51.654;21.250;2023-02-21T01:41:08;7.90;99.90
59311;DHT22;45078;51.654;21.250;2023-02-21T01:43:57;7.80;99.90
59311;DHT22;45078;51.654;21.250;2023-02-21T01:46:41;7.80;99.90
59311;DHT22;45078;51.654;21.250;2023-02-21T01:49:26;7.90;99.90
59311;DHT22;45078;51.654;21.250;2023-02-21T01:52:10;8.10;99.90
59311;DHT22;45078;51.654;21.250;2023-02-21T01:54:55;8.10;99.90
59311;DHT22;45078;51.654;21.250;2023-02-21T01:57:39;8.10;99.90
59311;DHT22;45078;51.654;21.250;2023-02-21T02:21:26;8.00;99.90
59311;DHT22;45078;51.654;21.250;2023-02-21T02:35:48;7.60;99.90
59311;DHT22;45078;51.654;21.250;2023-02-21T02:38:32;7.50;99.90
59311;DHT22;45078;51.654;21.250;2023-02-21T02:41:12;7.40;99.90
59311;DHT22;45078;51.654;21.250;2023-02-21T02:44:05;7.40;99.90
59311;DHT22;45078;51.654;21.250;2023-02-21T02:46:34;7.40;99.90
59311;DHT22;45078;51.654;21.250;2023-02-21T02:49:23;7.30;99.90
59311;DHT22;45078;51.654;21.250;2023-02-21T02:51:52;7.30;99.90
59311;DHT22;45078;51.654;21.250;2023-02-21T02:54:18;7.20;99.90
59311;DHT22;45078;51.654;21.250;2023-02-21T02:56:45;7.20;99.90
59311;DHT22;45078;51.654;21.250;2023-02-21T02:59:23;7.20;99.90
59311;DHT22;45078;51.654;21.250;2023-02-21T03:10:44;7.10;99.90
59311;DHT22;45078;51.654;21.250;2023-02-21T03:13:22;7.10;99.90
59311;DHT22;45078;51.654;21.250;2023-02-21T03:15:56;7.10;99.90
59311;DHT22;45078;51.654;21.250;2023-02-21T03:18:32;7.10;99.90
59311;DHT22;45078;51.654;21.250;2023-02-21T03:21:03;7.10;99.90
59311;DHT22;45078;51.654;21.250;2023-02-21T03:23:31;7.20;99.90
59311;DHT22;45078;51.654;21.250;2023-02-21T03:26:03;7.20;99.90
59311;DHT22;45078;51.654;21.250;2023-02-21T03:28:31;7.20;99.90
59311;DHT22;45078;51.654;21.250;2023-02-21T03:30:59;7.20;99.90
59311;DHT22;45078;51.654;21.250;2023-02-21T03:33:26;7.20;99.90
59311;DHT22;45078;51.654;21.250;2023-02-21T03:35:53;7.20;99.90
59311;DHT22;45078;51.654;21.250;2023-02-21T03:38:19;7.20;99.90
59311;DHT22;45078;51.654;21.250;2023-02-21T03:40:45;7.20;99.90
59311;DHT22;45078;51.654;21.250;2023-02-21T03:43:11;7.20;99.90
59311;DHT22;45078;51.654;21.250;2023-02-21T03:45:37;7.20;99.90
59311;DHT22;45078;51.654;21.250;2023-02-21T03:48:03;7.20;99.90
59311;DHT22;45078;51.654;21.250;2023-02-21T03:50:29;7.20;99.90
59311;DHT22;45078;51.654;21.250;2023-02-21T03:52:54;7.20;99.90
59311;DHT22;45078;51.654;21.250;2023-02-21T03:55:21;7.30;99.90
59311;DHT22;45078;51.654;21.250;2023-02-21T03:57:47;7.30;99.90
59311;DHT22;45078;51.654;21.250;2023-02-21T04:00:13;7.20;99.90
59311;DHT22;45078;51.654;21.250;2023-02-21T04:02:39;7.20;99.90
59311;DHT22;45078;51.654;21.250;2023-02-21T04:05:05;7.20;99.90
59311;DHT22;45078;51.654;21.250;2023-02-21T04:07:31;7.20;99.90
59311;DHT22;45078;51.654;21.250;2023-02-21T04:09:57;7.20;99.90
59311;DHT22;45078;51.654;21.250;2023-02-21T04:12:23;7.20;99.90
59311;DHT22;45078;51.654;21.250;2023-02-21T04:14:49;7.20;99.90
59311;DHT22;45078;51.654;21.250;2023-02-21T04:17:17;7.20;99.90
59311;DHT22;45078;51.654;21.250;2023-02-21T04:19:43;7.20;99.90
59311;DHT22;45078;51.654;21.250;2023-02-21T04:22:09;7.10;99.90
59311;DHT22;45078;51.654;21.250;2023-02-21T04:24:34;7.10;99.90
59311;DHT22;45078;51.654;21.250;2023-02-21T04:27:00;7.10;99.90
59311;DHT22;45078;51.654;21.250;2023-02-21T04:29:26;7.00;99.90
59311;DHT22;45078;51.654;21.250;2023-02-21T04:31:52;7.00;99.90
59311;DHT22;45078;51.654;21.250;2023-02-21T04:34:23;7.10;99.90
59311;DHT22;45078;51.654;21.250;2023-02-21T04:36:48;7.10;99.90
59311;DHT22;45078;51.654;21.250;2023-02-21T04:39:14;7.10;99.90
59311;DHT22;45078;51.654;21.250;2023-02-21T04:41:40;7.10;99.90
59311;DHT22;45078;51.654;21.250;2023-02-21T04:44:06;7.10;99.90
59311;DHT22;45078;51.654;21.250;2023-02-21T04:46:32;7.00;99.90
59311;DHT22;45078;51.654;21.250;2023-02-21T04:48:58;7.00;99.90
59311;DHT22;45078;51.654;21.250;2023-02-21T04:51:24;7.00;99.90
59311;DHT22;45078;51.654;21.250;2023-02-21T04:53:52;7.00;99.90
59311;DHT22;45078;51.654;21.250;2023-02-21T04:56:20;7.00;99.90
59311;DHT22;45078;51.654;21.250;2023-02-21T04:58:46;6.90;99.90
59311;DHT22;45078;51.654;21.250;2023-02-21T05:01:14;6.90;99.90
59311;DHT22;45078;51.654;21.250;2023-02-21T05:03:40;6.90;99.90
59311;DHT22;45078;51.654;21.250;2023-02-21T05:06:06;6.90;99.90
59311;DHT22;45078;51.654;21.250;2023-02-21T05:08:32;6.80;99.90
59311;DHT22;45078;51.654;21.250;2023-02-21T05:10:58;6.80;99.90
59311;DHT22;45078;51.654;21.250;2023-02-21T05:13:23;6.80;99.90
59311;DHT22;45078;51.654;21.250;2023-02-21T05:15:49;6.80;99.90
59311;DHT22;45078;51.654;21.250;2023-02-21T05:18:16;6.80;99.90
59311;DHT22;45078;51.654;21.250;2023-02-21T05:20:50;6.80;99.90
59311;DHT22;45078;51.654;21.250;2023-02-21T05:23:17;6.80;99.90
59311;DHT22;45078;51.654;21.250;2023-02-21T05:25:43;6.80;99.90
59311;DHT22;45078;51.654;21.250;2023-02-21T05:28:09;6.90;99.90
59311;DHT22;45078;51.654;21.250;2023-02-21T05:30:35;6.90;99.90
59311;DHT22;45078;51.654;21.250;2023-02-21T05:33:01;6.90;99.90
59311;DHT22;45078;51.654;21.250;2023-02-21T05:35:27;6.90;99.90
59311;DHT22;45078;51.654;21.250;2023-02-21T05:37:52;6.80;99.90
59311;DHT22;45078;51.654;21.250;2023-02-21T05:40:18;6.80;99.90
59311;DHT22;45078;51.654;21.250;2023-02-21T05:42:45;6.90;99.90
59311;DHT22;45078;51.654;21.250;2023-02-21T05:45:11;6.90;99.90
59311;DHT22;45078;51.654;21.250;2023-02-21T05:47:37;6.90;99.90
59311;DHT22;45078;51.654;21.250;2023-02-21T05:50:04;6.90;99.90
59311;DHT22;45078;51.654;21.250;2023-02-21T05:52:30;6.90;99.90
59311;DHT22;45078;51.654;21.250;2023-02-21T05:54:55;6.80;99.90
59311;DHT22;45078;51.654;21.250;2023-02-21T05:57:21;6.80;99.90
59311;DHT22;45078;51.654;21.250;2023-02-21T05:59:47;6.80;99.90
59311;DHT22;45078;51.654;21.250;2023-02-21T06:02:14;6.80;99.90
59311;DHT22;45078;51.654;21.250;2023-02-21T06:04:39;6.80;99.90
59311;DHT22;45078;51.654;21.250;2023-02-21T06:07:05;6.80;99.90
59311;DHT22;45078;51.654;21.250;2023-02-21T06:09:31;6.80;99.90
59311;DHT22;45078;51.654;21.250;2023-02-21T06:11:57;6.80;99.90
59311;DHT22;45078;51.654;21.250;2023-02-21T06:14:24;6.80;99.90
59311;DHT22;45078;51.654;21.250;2023-02-21T06:16:50;6.80;99.90
59311;DHT22;45078;51.654;21.250;2023-02-21T06:19:16;6.80;99.90
59311;DHT22;45078;51.654;21.250;2023-02-21T06:21:43;6.80;99.90
59311;DHT22;45078;51.654;21.250;2023-02-21T06:24:09;6.80;99.90
59311;DHT22;45078;51.654;21.250;2023-02-21T06:26:36;6.80;99.90
59311;DHT22;45078;51.654;21.250;2023-02-21T06:29:05;6.80;99.90
59311;DHT22;45078;51.654;21.250;2023-02-21T06:31:31;6.80;99.90
59311;DHT22;45078;51.654;21.250;2023-02-21T06:33:58;6.80;99.90
59311;DHT22;45078;51.654;21.250;2023-02-21T06:36:26;6.80;99.90
59311;DHT22;45078;51.654;21.250;2023-02-21T06:38:54;6.70;99.90
59311;DHT22;45078;51.654;21.250;2023-02-21T06:41:26;6.80;99.90
59311;DHT22;45078;51.654;21.250;2023-02-21T06:43:53;6.90;99.90
59311;DHT22;45078;51.654;21.250;2023-02-21T06:46:20;7.20;99.90
59311;DHT22;45078;51.654;21.250;2023-02-21T06:48:47;7.40;99.90
59311;DHT22;45078;51.654;21.250;2023-02-21T06:51:13;7.40;99.90
59311;DHT22;45078;51.654;21.250;2023-02-21T06:53:40;7.40;99.90
59311;DHT22;45078;51.654;21.250;2023-02-21T06:56:07;7.60;99.90
59311;DHT22;45078;51.654;21.250;2023-02-21T06:58:33;7.70;99.90
59311;DHT22;45078;51.654;21.250;2023-02-21T07:00:59;8.00;99.90
59311;DHT22;45078;51.654;21.250;2023-02-21T07:03:24;8.10;99.90
59311;DHT22;45078;51.654;21.250;2023-02-21T07:05:50;8.20;99.90
59311;DHT22;45078;51.654;21.250;2023-02-21T07:08:16;8.50;99.90
59311;DHT22;45078;51.654;21.250;2023-02-21T07:10:42;8.90;99.90
59311;DHT22;45078;51.654;21.250;2023-02-21T07:13:07;9.00;99.90
59311;DHT22;45078;51.654;21.250;2023-02-21T07:15:33;8.60;99.90
59311;DHT22;45078;51.654;21.250;2023-02-21T07:17:59;8.70;99.90
59311;DHT22;45078;51.654;21.250;2023-02-21T07:20:25;8.50;99.90
59311;DHT22;45078;51.654;21.250;2023-02-21T07:22:52;8.40;99.90
59311;DHT22;45078;51.654;21.250;2023-02-21T07:25:20;8.20;99.90
59311;DHT22;45078;51.654;21.250;2023-02-21T07:27:47;8.00;99.90
59311;DHT22;45078;51.654;21.250;2023-02-21T07:30:14;8.00;99.90
59311;DHT22;45078;51.654;21.250;2023-02-21T07:32:40;8.00;99.90
59311;DHT22;45078;51.654;21.250;2023-02-21T07:35:06;7.90;99.90
59311;DHT22;45078;51.654;21.250;2023-02-21T07:37:32;7.70;99.90
59311;DHT22;45078;51.654;21.250;2023-02-21T07:39:58;7.90;99.90
59311;DHT22;45078;51.654;21.250;2023-02-21T07:42:24;8.00;99.90
59311;DHT22;45078;51.654;21.250;2023-02-21T07:44:57;8.10;99.90
59311;DHT22;45078;51.654;21.250;2023-02-21T07:47:26;8.00;99.90
59311;DHT22;45078;51.654;21.250;2023-02-21T07:49:53;7.90;99.90
59311;DHT22;45078;51.654;21.250;2023-02-21T07:52:20;7.80;99.90
59311;DHT22;45078;51.654;21.250;2023-02-21T07:54:46;7.80;99.90
59311;DHT22;45078;51.654;21.250;2023-02-21T07:57:12;8.00;99.90
59311;DHT22;45078;51.654;21.250;2023-02-21T07:59:38;8.10;99.90
59311;DHT22;45078;51.654;21.250;2023-02-21T08:02:04;8.30;99.90
59311;DHT22;45078;51.654;21.250;2023-02-21T08:04:29;8.50;99.90
59311;DHT22;45078;51.654;21.250;2023-02-21T08:06:59;8.40;99.90
59311;DHT22;45078;51.654;21.250;2023-02-21T08:09:25;8.50;99.90
59311;DHT22;45078;51.654;21.250;2023-02-21T08:11:51;8.60;99.90
59311;DHT22;45078;51.654;21.250;2023-02-21T08:14:17;8.60;99.90
59311;DHT22;45078;51.654;21.250;2023-02-21T08:16:42;8.80;99.90
59311;DHT22;45078;51.654;21.250;2023-02-21T08:19:08;8.60;99.90
59311;DHT22;45078;51.654;21.250;2023-02-21T08:21:34;8.60;99.90
59311;DHT22;45078;51.654;21.250;2023-02-21T08:24:00;8.50;99.90
59311;DHT22;45078;51.654;21.250;2023-02-21T08:26:26;8.40;99.90
59311;DHT22;45078;51.654;21.250;2023-02-21T08:28:52;8.50;99.90
59311;DHT22;45078;51.654;21.250;2023-02-21T08:31:18;8.40;99.90
59311;DHT22;45078;51.654;21.250;2023-02-21T08:33:44;8.20;99.90
59311;DHT22;45078;51.654;21.250;2023-02-21T08:36:10;8.40;99.90
59311;DHT22;45078;51.654;21.250;2023-02-21T08:38:36;8.40;99.90
59311;DHT22;45078;51.654;21.250;2023-02-21T08:41:02;8.30;99.90
59311;DHT22;45078;51.654;21.250;2023-02-21T08:43:31;8.40;99.90
59311;DHT22;45078;51.654;21.250;2023-02-21T08:45:57;8.40;99.90
59311;DHT22;45078;51.654;21.250;2023-02-21T08:48:23;8.30;99.90
59311;DHT22;45078;51.654;21.250;2023-02-21T08:50:49;8.20;99.90
59311;DHT22;45078;51.654;21.250;2023-02-21T08:53:16;8.20;99.90
59311;DHT22;45078;51.654;21.250;2023-02-21T08:55:43;8.10;99.90
59311;DHT22;45078;51.654;21.250;2023-02-21T08:58:11;8.10;99.90
59311;DHT22;45078;51.654;21.250;2023-02-21T09:00:37;8.00;99.90
59311;DHT22;45078;51.654;21.250;2023-02-21T09:03:03;7.90;99.90
59311;DHT22;45078;51.654;21.250;2023-02-21T09:05:30;7.90;99.90
59311;DHT22;45078;51.654;21.250;2023-02-21T09:07:58;8.00;99.90
59311;DHT22;45078;51.654;21.250;2023-02-21T09:10:28;8.00;99.90
59311;DHT22;45078;51.654;21.250;2023-02-21T09:12:54;7.90;99.90
59311;DHT22;45078;51.654;21.250;2023-02-21T09:15:20;7.90;99.90
59311;DHT22;45078;51.654;21.250;2023-02-21T09:17:46;7.80;99.90
59311;DHT22;45078;51.654;21.250;2023-02-21T09:20:18;7.80;99.90
59311;DHT22;45078;51.654;21.250;2023-02-21T09:22:46;7.80;99.90
59311;DHT22;45078;51.654;21.250;2023-02-21T09:25:13;7.80;99.90
59311;DHT22;45078;51.654;21.250;2023-02-21T09:27:39;7.40;99.90
59311;DHT22;45078;51.654;21.250;2023-02-21T09:32:33;6.70;99.90
59311;DHT22;45078;51.654;21.250;2023-02-21T09:35:00;6.70;99.90
59311;DHT22;45078;51.654;21.250;2023-02-21T09:37:26;6.80;99.90
59311;DHT22;45078;51.654;21.250;2023-02-21T09:39:52;6.80;99.90
59311;DHT22;45078;51.654;21.250;2023-02-21T09:42:18;6.90;99.90
59311;DHT22;45078;51.654;21.250;2023-02-21T09:44:47;7.10;99.90
59311;DHT22;45078;51.654;21.250;2023-02-21T09:47:27;7.40;99.90
59311;DHT22;45078;51.654;21.250;2023-02-21T09:50:00;7.40;99.90
59311;DHT22;45078;51.654;21.250;2023-02-21T09:52:37;7.50;99.90
59311;DHT22;45078;51.654;21.250;2023-02-21T09:57:52;7.70;99.90
59311;DHT22;45078;51.654;21.250;2023-02-21T10:00:21;7.90;99.90
59311;DHT22;45078;51.654;21.250;2023-02-21T10:05:51;8.10;99.90
59311;DHT22;45078;51.654;21.250;2023-02-21T10:08:27;8.20;99.90
59311;DHT22;45078;51.654;21.250;2023-02-21T10:11:04;8.30;99.90
59311;DHT22;45078;51.654;21.250;2023-02-21T10:13:42;8.20;99.90
59311;DHT22;45078;51.654;21.250;2023-02-21T10:16:19;8.60;99.90
59311;DHT22;45078;51.654;21.250;2023-02-21T10:21:52;9.30;99.90
59311;DHT22;45078;51.654;21.250;2023-02-21T10:24:21;9.70;99.90
59311;DHT22;45078;51.654;21.250;2023-02-21T10:29:26;9.80;99.90
59311;DHT22;45078;51.654;21.250;2023-02-21T10:32:00;9.90;99.90
59311;DHT22;45078;51.654;21.250;2023-02-21T10:34:29;10.00;99.90
59311;DHT22;45078;51.654;21.250;2023-02-21T10:36:58;10.10;99.90
59311;DHT22;45078;51.654;21.250;2023-02-21T10:39:38;10.40;99.90
59311;DHT22;45078;51.654;21.250;2023-02-21T10:42:12;10.50;99.90
59311;DHT22;45078;51.654;21.250;2023-02-21T10:44:40;10.60;99.90
59311;DHT22;45078;51.654;21.250;2023-02-21T10:47:14;10.80;99.90
59311;DHT22;45078;51.654;21.250;2023-02-21T10:49:49;10.70;99.90
59311;DHT22;45078;51.654;21.250;2023-02-21T10:52:18;10.00;99.90
59311;DHT22;45078;51.654;21.250;2023-02-21T10:57:55;9.40;99.90
59311;DHT22;45078;51.654;21.250;2023-02-21T11:00:29;9.20;99.90
59311;DHT22;45078;51.654;21.250;2023-02-21T11:03:25;9.10;99.90
59311;DHT22;45078;51.654;21.250;2023-02-21T11:05:54;9.10;99.90
59311;DHT22;45078;51.654;21.250;2023-02-21T11:08:42;9.10;99.90
59311;DHT22;45078;51.654;21.250;2023-02-21T11:11:08;8.90;99.90
59311;DHT22;45078;51.654;21.250;2023-02-21T11:13:35;8.80;99.90
59311;DHT22;45078;51.654;21.250;2023-02-21T11:16:20;8.70;99.90
59311;DHT22;45078;51.654;21.250;2023-02-21T11:19:11;8.60;99.90
59311;DHT22;45078;51.654;21.250;2023-02-21T11:21:37;8.60;99.90
59311;DHT22;45078;51.654;21.250;2023-02-21T11:24:05;8.60;99.90
59311;DHT22;45078;51.654;21.250;2023-02-21T11:26:44;8.50;99.90
59311;DHT22;45078;51.654;21.250;2023-02-21T11:29:14;8.50;99.90
59311;DHT22;45078;51.654;21.250;2023-02-21T11:31:41;8.50;99.90
59311;DHT22;45078;51.654;21.250;2023-02-21T11:34:10;8.50;99.90
59311;DHT22;45078;51.654;21.250;2023-02-21T11:36:45;8.50;99.90
59311;DHT22;45078;51.654;21.250;2023-02-21T11:39:31;8.50;99.90
59311;DHT22;45078;51.654;21.250;2023-02-21T11:42:02;8.60;99.90
59311;DHT22;45078;51.654;21.250;2023-02-21T11:52:41;8.50;99.90
59311;DHT22;45078;51.654;21.250;2023-02-21T11:55:15;8.50;99.90
59311;DHT22;45078;51.654;21.250;2023-02-21T12:08:47;8.30;99.90
59311;DHT22;45078;51.654;21.250;2023-02-21T12:11:47;8.40;99.90
59311;DHT22;45078;51.654;21.250;2023-02-21T12:23:14;8.20;99.90
59311;DHT22;45078;51.654;21.250;2023-02-21T12:28:33;8.40;99.90
59311;DHT22;45078;51.654;21.250;2023-02-21T12:46:51;8.80;99.90
59311;DHT22;45078;51.654;21.250;2023-02-21T12:52:13;9.10;99.90
59311;DHT22;45078;51.654;21.250;2023-02-21T13:05:54;9.10;99.90
59311;DHT22;45078;51.654;21.250;2023-02-21T13:08:27;8.90;99.90
59311;DHT22;45078;51.654;21.250;2023-02-21T13:10:58;8.70;99.90
59311;DHT22;45078;51.654;21.250;2023-02-21T13:13:30;8.60;99.90
59311;DHT22;45078;51.654;21.250;2023-02-21T13:16:00;8.50;99.90
59311;DHT22;45078;51.654;21.250;2023-02-21T13:32:39;8.10;99.90
59311;DHT22;45078;51.654;21.250;2023-02-21T13:35:19;8.10;99.90
59311;DHT22;45078;51.654;21.250;2023-02-21T13:37:47;8.00;99.90
59311;DHT22;45078;51.654;21.250;2023-02-21T13:40:32;7.80;99.90
59311;DHT22;45078;51.654;21.250;2023-02-21T13:43:03;7.80;99.90
59311;DHT22;45078;51.654;21.250;2023-02-21T13:45:29;7.80;99.90
59311;DHT22;45078;51.654;21.250;2023-02-21T13:50:55;7.90;99.90
59311;DHT22;45078;51.654;21.250;2023-02-21T13:53:30;7.90;99.90
59311;DHT22;45078;51.654;21.250;2023-02-21T13:58:47;7.80;99.90
59311;DHT22;45078;51.654;21.250;2023-02-21T14:01:38;7.90;99.90
59311;DHT22;45078;51.654;21.250;2023-02-21T14:07:07;7.90;99.90
59311;DHT22;45078;51.654;21.250;2023-02-21T14:09:38;7.90;99.90
59311;DHT22;45078;51.654;21.250;2023-02-21T14:12:05;7.80;99.90
59311;DHT22;45078;51.654;21.250;2023-02-21T14:14:34;7.90;99.90
59311;DHT22;45078;51.654;21.250;2023-02-21T14:17:11;7.80;99.90
59311;DHT22;45078;51.654;21.250;2023-02-21T14:19:50;7.80;99.90
59311;DHT22;45078;51.654;21.250;2023-02-21T14:22:23;7.80;99.90
59311;DHT22;45078;51.654;21.250;2023-02-21T14:24:51;7.80;99.90
59311;DHT22;45078;51.654;21.250;2023-02-21T14:32:46;7.70;99.90
59311;DHT22;45078;51.654;21.250;2023-02-21T14:38:22;7.70;99.90
59311;DHT22;45078;51.654;21.250;2023-02-21T15:03:20;7.50;99.90
59311;DHT22;45078;51.654;21.250;2023-02-21T15:08:20;7.50;99.90
59311;DHT22;45078;51.654;21.250;2023-02-21T15:10:50;7.50;99.90
59311;DHT22;45078;51.654;21.250;2023-02-21T15:15:58;7.40;99.90
59311;DHT22;45078;51.654;21.250;2023-02-21T15:18:31;7.40;99.90
59311;DHT22;45078;51.654;21.250;2023-02-21T15:23:43;7.40;99.90
59311;DHT22;45078;51.654;21.250;2023-02-21T15:26:35;7.30;99.90
59311;DHT22;45078;51.654;21.250;2023-02-21T15:31:47;7.30;99.90
59311;DHT22;45078;51.654;21.250;2023-02-21T15:36:44;7.30;99.90
59311;DHT22;45078;51.654;21.250;2023-02-21T15:39:35;7.20;99.90
59311;DHT22;45078;51.654;21.250;2023-02-21T15:42:05;7.20;99.90
59311;DHT22;45078;51.654;21.250;2023-02-21T15:44:41;7.20;99.90
59311;DHT22;45078;51.654;21.250;2023-02-21T15:47:12;7.20;99.90
59311;DHT22;45078;51.654;21.250;2023-02-21T15:52:37;7.10;99.90
59311;DHT22;45078;51.654;21.250;2023-02-21T15:55:27;7.10;99.90
59311;DHT22;45078;51.654;21.250;2023-02-21T16:00:43;7.10;99.90
59311;DHT22;45078;51.654;21.250;2023-02-21T16:03:31;7.10;99.90
59311;DHT22;45078;51.654;21.250;2023-02-21T16:09:06;7.10;99.90
59311;DHT22;45078;51.654;21.250;2023-02-21T16:11:59;7.10;99.90
59311;DHT22;45078;51.654;21.250;2023-02-21T16:14:32;7.10;99.90
59311;DHT22;45078;51.654;21.250;2023-02-21T16:17:36;7.10;99.90
59311;DHT22;45078;51.654;21.250;2023-02-21T16:35:25;7.00;99.90
59311;DHT22;45078;51.654;21.250;2023-02-21T16:37:55;7.00;99.90
59311;DHT22;45078;51.654;21.250;2023-02-21T16:40:24;7.00;99.90
59311;DHT22;45078;51.654;21.250;2023-02-21T16:42:52;7.00;99.90
59311;DHT22;45078;51.654;21.250;2023-02-21T16:45:19;6.90;99.90
59311;DHT22;45078;51.654;21.250;2023-02-21T16:47:47;6.90;99.90
59311;DHT22;45078;51.654;21.250;2023-02-21T16:50:26;6.90;99.90
59311;DHT22;45078;51.654;21.250;2023-02-21T16:52:52;6.90;99.90
59311;DHT22;45078;51.654;21.250;2023-02-21T16:55:18;6.90;99.90
59311;DHT22;45078;51.654;21.250;2023-02-21T16:57:49;6.90;99.90
59311;DHT22;45078;51.654;21.250;2023-02-21T17:00:17;6.90;99.90
59311;DHT22;45078;51.654;21.250;2023-02-21T17:02:48;6.90;99.90
59311;DHT22;45078;51.654;21.250;2023-02-21T17:05:18;6.80;99.90
59311;DHT22;45078;51.654;21.250;2023-02-21T17:07:47;6.80;99.90
59311;DHT22;45078;51.654;21.250;2023-02-21T17:10:15;6.80;99.90
59311;DHT22;45078;51.654;21.250;2023-02-21T17:12:41;6.80;99.90
59311;DHT22;45078;51.654;21.250;2023-02-21T17:15:08;6.80;99.90
59311;DHT22;45078;51.654;21.250;2023-02-21T17:17:40;6.70;99.90
59311;DHT22;45078;51.654;21.250;2023-02-21T17:20:15;6.80;99.90
59311;DHT22;45078;51.654;21.250;2023-02-21T17:22:41;6.70;99.90
59311;DHT22;45078;51.654;21.250;2023-02-21T17:25:07;6.70;99.90
59311;DHT22;45078;51.654;21.250;2023-02-21T17:27:33;6.70;99.90
59311;DHT22;45078;51.654;21.250;2023-02-21T17:29:59;6.70;99.90
59311;DHT22;45078;51.654;21.250;2023-02-21T17:32:25;6.70;99.90
59311;DHT22;45078;51.654;21.250;2023-02-21T17:34:51;6.70;99.90
59311;DHT22;45078;51.654;21.250;2023-02-21T17:37:17;6.70;99.90
59311;DHT22;45078;51.654;21.250;2023-02-21T17:39:43;6.70;99.90
59311;DHT22;45078;51.654;21.250;2023-02-21T17:42:09;6.70;99.90
59311;DHT22;45078;51.654;21.250;2023-02-21T17:44:34;6.70;99.90
59311;DHT22;45078;51.654;21.250;2023-02-21T17:47:03;6.60;99.90
59311;DHT22;45078;51.654;21.250;2023-02-21T17:49:32;6.60;99.90
59311;DHT22;45078;51.654;21.250;2023-02-21T17:51:58;6.60;99.90
59311;DHT22;45078;51.654;21.250;2023-02-21T17:54:25;6.60;99.90
59311;DHT22;45078;51.654;21.250;2023-02-21T17:56:51;6.60;99.90
59311;DHT22;45078;51.654;21.250;2023-02-21T17:59:18;6.60;99.90
59311;DHT22;45078;51.654;21.250;2023-02-21T18:01:44;6.60;99.90
59311;DHT22;45078;51.654;21.250;2023-02-21T18:04:11;6.60;99.90
59311;DHT22;45078;51.654;21.250;2023-02-21T18:06:40;6.60;99.90
59311;DHT22;45078;51.654;21.250;2023-02-21T18:09:06;6.60;99.90
59311;DHT22;45078;51.654;21.250;2023-02-21T18:11:33;6.60;99.90
59311;DHT22;45078;51.654;21.250;2023-02-21T18:14:02;6.60;99.90
59311;DHT22;45078;51.654;21.250;2023-02-21T18:16:28;6.60;99.90
59311;DHT22;45078;51.654;21.250;2023-02-21T18:18:54;6.60;99.90
59311;DHT22;45078;51.654;21.250;2023-02-21T18:21:20;6.60;99.90
59311;DHT22;45078;51.654;21.250;2023-02-21T18:23:49;6.60;99.90
59311;DHT22;45078;51.654;21.250;2023-02-21T18:26:16;6.60;99.90
59311;DHT22;45078;51.654;21.250;2023-02-21T18:28:43;6.60;99.90
59311;DHT22;45078;51.654;21.250;2023-02-21T18:31:10;6.60;99.90
59311;DHT22;45078;51.654;21.250;2023-02-21T18:33:39;6.50;99.90
59311;DHT22;45078;51.654;21.250;2023-02-21T18:36:06;6.60;99.90
59311;DHT22;45078;51.654;21.250;2023-02-21T18:38:34;6.50;99.90
59311;DHT22;45078;51.654;21.250;2023-02-21T18:41:00;6.50;99.90
59311;DHT22;45078;51.654;21.250;2023-02-21T18:43:28;6.50;99.90
59311;DHT22;45078;51.654;21.250;2023-02-21T18:45:56;6.50;99.90
59311;DHT22;45078;51.654;21.250;2023-02-21T18:48:24;6.50;99.90
59311;DHT22;45078;51.654;21.250;2023-02-21T18:50:50;6.50;99.90
59311;DHT22;45078;51.654;21.250;2023-02-21T18:53:16;6.50;99.90
59311;DHT22;45078;51.654;21.250;2023-02-21T18:55:43;6.50;99.90
59311;DHT22;45078;51.654;21.250;2023-02-21T18:58:10;6.50;99.90
59311;DHT22;45078;51.654;21.250;2023-02-21T19:00:36;6.50;99.90
59311;DHT22;45078;51.654;21.250;2023-02-21T19:03:06;6.50;99.90
59311;DHT22;45078;51.654;21.250;2023-02-21T19:05:33;6.40;99.90
59311;DHT22;45078;51.654;21.250;2023-02-21T19:08:01;6.50;99.90
59311;DHT22;45078;51.654;21.250;2023-02-21T19:10:28;6.50;99.90
59311;DHT22;45078;51.654;21.250;2023-02-21T19:12:54;6.50;99.90
59311;DHT22;45078;51.654;21.250;2023-02-21T19:15:24;6.50;99.90
59311;DHT22;45078;51.654;21.250;2023-02-21T19:17:50;6.50;99.90
59311;DHT22;45078;51.654;21.250;2023-02-21T19:20:16;6.50;99.90
59311;DHT22;45078;51.654;21.250;2023-02-21T19:22:44;6.50;99.90
59311;DHT22;45078;51.654;21.250;2023-02-21T19:25:11;6.50;99.90
59311;DHT22;45078;51.654;21.250;2023-02-21T19:27:37;6.40;99.90